Historyczne dane pomiarowe

Dodano dane terminowe – wersja testowa.

Dane z okresu 1951-2019

Wersja bazy: 1.34 [2019-03-16, lista zmian], aktualizacja planowana na 2019-04-15

Dane meteo z obszaru Polski uzyskane na podstawie danych udostępnionych przez Instytut Meteorologii i Gospodarki Wodnej – Państwowy Instytut Badawczy.

 

Wybierz Datę:    

       

TemperaturaWilgotnośćZachmurzenieWiatrCiśnienieWidzialnośćZjawiska
 Data    tng td wb rh cc ccl cl cm ch dir g1 g2 mslp ppp      
1999-07-01 00:00:00 17.8--- 15.1 16.184wxwxwx2wx--1017.6 994.9 0.0---wx
1999-07-01 01:00:00 17.8--- 14.6 15.881wxwxwx2wx--1017.4 994.7----wx
1999-07-01 02:00:00 17.1--- 14.7 15.686wxwxwx2wx--1017.4 994.6----wx
1999-07-01 03:00:00 17.1--- 14.8 15.787wxwxwxwx2wx--1017.2 994.4----wx
1999-07-01 04:00:00 16.5--- 14.9 15.590wxwxwxwxwx1wx--1017.4 994.6----wx
1999-07-01 05:00:00 17.9--- 15.5 16.486wxwxwxwx3wx--1017.6 994.9----wx
1999-07-01 06:00:00 18.8--- 16.1 17.184wxwxwxwxwx3wx--1017.7 995.1 0.0---wx
1999-07-01 07:00:00 20.4--- 16.2 17.777wxwxwxwxwx2wx--1017.7 995.2----wx
1999-07-01 08:00:00 20.8--- 15.4 17.471wxwxwxwxwx2wx--1017.8 995.3----wx
1999-07-01 09:00:00 21.1--- 15.2 17.469wxwxwxwx3wx--1017.9 995.4----wx
1999-07-01 10:00:00 21.4--- 15.7 17.870wxwxwx3wx--1017.8 995.4----wx
1999-07-01 11:00:00 21.4--- 16.1 18.072wxwxwxwx4wx--1017.7 995.3----wx
1999-07-01 12:00:00 22.8--- 15.9 18.465wxwxwxwxwx3wx--1017.2 994.9 0.0---wx
1999-07-01 13:00:00 22.1--- 15.3 17.865wxwxwx5wx--1017.2 994.8----wx
1999-07-01 14:00:00 22.8--- 15.2 18.062wxwxwxwxwx5wx--1016.8 994.5----wx
1999-07-01 15:00:00 22.8--- 15.6 18.264wxwxwxwx4wx--1016.7 994.4----wx
1999-07-01 16:00:00 21.7--- 14.9 17.465wxwxwxwx4wx--1016.8 994.4----wx
1999-07-01 17:00:00 21.4--- 16.1 18.072wxwxwxwx3wx--1017.0 994.6----wx
1999-07-01 18:00:00 19.8--- 16.0 17.479wxwxwxwx1wx--1016.6 994.1 0.0---wx
1999-07-01 19:00:00 19.5--- 15.5 17.078wxwxwxwx2wx--1017.1 994.5----wx
1999-07-01 20:00:00 18.0--- 16.3 16.990wxwxwxwx2wx--1017.6 994.9----wx
1999-07-01 21:00:00 17.6--- 16.3 16.892wxwxwxwx2wx--1018.0 995.3----wx
1999-07-01 22:00:00 16.8--- 14.5 15.486wxwxwxwx2wx--1018.0 995.2----wx
1999-07-01 23:00:00 15.3--- 14.8 15.097wxwxwx2wx--1017.6 994.7----wx

 

Źródłem pochodzenia danych jest Instytut Meteorologii i Gospodarki Wodnej – Państwowy Instytut Badawczy. Dane Instytutu Meteorologii i Gospodarki Wodnej – Państwowego Instytutu Badawczego zostały przetworzone.

Dane źródłowe można odnaleźć na stronie https://dane.imgw.pl